Time;durP1;ratioP1;P1;durP2;ratioP2;P2;SDS_P1;SDS_P2;PMS_P1;PMS_P2;Temp;Humidity;BMP_temperature;BMP_pressure;BME280_temperature;BME280_humidity;BME280_pressure;Samples;Min_cycle;Max_cycle;Signal;HPM_P1;HPM_P2
2022/03/05 00:00:48;;;;;;;15.75;7.60;;;-0.60;99.90;;;;;;5039258;28;20072;-66
2022/03/05 00:03:14;;;;;;;16.52;8.23;;;-0.50;99.90;;;;;;5042081;28;20395;-67
2022/03/05 00:05:40;;;;;;;16.50;8.50;;;-0.50;99.90;;;;;;5042508;28;20044;-67
2022/03/05 00:08:07;;;;;;;16.20;9.30;;;-0.60;99.90;;;;;;5049049;28;20060;-67
2022/03/05 00:10:33;;;;;;;14.77;7.85;;;-0.60;99.90;;;;;;5045211;28;20479;-67
2022/03/05 00:12:59;;;;;;;15.15;7.63;;;-0.60;99.90;;;;;;5055730;28;20052;-66
2022/03/05 00:15:26;;;;;;;16.15;7.97;;;-0.60;99.90;;;;;;5030914;28;20412;-66
2022/03/05 00:17:52;;;;;;;15.80;8.63;;;-0.60;99.90;;;;;;5050109;28;20045;-67
2022/03/05 00:20:18;;;;;;;16.63;8.07;;;-0.60;99.90;;;;;;5051506;28;20052;-67
2022/03/05 00:22:46;;;;;;;12.77;7.43;;;-0.70;99.90;;;;;;5051985;28;20037;-67
2022/03/05 00:25:12;;;;;;;15.50;7.90;;;-0.70;99.90;;;;;;5053979;28;20072;-67
2022/03/05 00:27:38;;;;;;;13.38;8.50;;;-0.70;99.90;;;;;;5046347;28;20480;-67
2022/03/05 00:30:04;;;;;;;13.05;7.22;;;-0.70;99.90;;;;;;5044336;28;20065;-66
2022/03/05 00:32:30;;;;;;;13.77;7.25;;;-0.80;99.90;;;;;;5052826;28;20041;-67
2022/03/05 00:34:56;;;;;;;18.13;7.88;;;-0.80;99.90;;;;;;5034022;28;20090;-67
2022/03/05 00:37:22;;;;;;;14.25;7.22;;;-0.80;99.90;;;;;;5050166;28;20128;-66
2022/03/05 00:39:47;;;;;;;13.88;7.63;;;-0.80;99.90;;;;;;5051709;28;20091;-67
2022/03/05 00:42:13;;;;;;;16.00;7.78;;;-0.80;99.90;;;;;;5048340;28;20053;-66
2022/03/05 00:44:39;;;;;;;14.85;8.02;;;-0.80;99.90;;;;;;5049102;28;20041;-66
2022/03/05 00:47:05;;;;;;;13.73;7.55;;;-0.80;99.90;;;;;;5048013;28;20036;-67
2022/03/05 00:49:31;;;;;;;13.10;7.63;;;-0.80;99.90;;;;;;5050785;28;20048;-67
2022/03/05 00:51:57;;;;;;;13.85;7.95;;;-0.80;99.90;;;;;;5051957;28;20426;-67
2022/03/05 00:54:22;;;;;;;13.45;7.43;;;-0.80;99.90;;;;;;5051300;28;20077;-66
2022/03/05 00:56:48;;;;;;;16.90;7.80;;;-0.80;99.90;;;;;;5050917;28;20045;-67
2022/03/05 00:59:14;;;;;;;13.10;7.38;;;-0.90;99.90;;;;;;5042502;28;20394;-66
2022/03/05 01:01:40;;;;;;;15.63;8.45;;;-0.90;99.90;;;;;;5057207;28;20040;-67
2022/03/05 01:04:06;;;;;;;12.90;7.80;;;-0.80;99.90;;;;;;5052397;28;20055;-67
2022/03/05 01:06:32;;;;;;;14.75;8.18;;;-0.80;99.90;;;;;;5048883;28;20098;-67
2022/03/05 01:09:02;;;;;;;13.85;8.32;;;-0.80;99.90;;;;;;5046803;28;20041;-67
2022/03/05 01:11:28;;;;;;;17.13;8.63;;;-0.80;99.90;;;;;;5048230;28;20045;-66
2022/03/05 01:13:54;;;;;;;17.85;8.82;;;-0.80;99.90;;;;;;5046344;28;20116;-66
2022/03/05 01:16:20;;;;;;;14.57;8.60;;;-0.80;99.90;;;;;;5043905;28;20049;-66
2022/03/05 01:18:46;;;;;;;15.23;8.63;;;-0.80;99.90;;;;;;5033560;28;20040;-66
2022/03/05 01:21:12;;;;;;;13.65;7.68;;;-0.80;99.90;;;;;;5050072;28;20042;-66
2022/03/05 01:23:38;;;;;;;15.13;7.63;;;-0.80;99.90;;;;;;5038462;28;20041;-66
2022/03/05 01:26:04;;;;;;;16.55;8.65;;;-0.80;99.90;;;;;;5049870;28;20375;-67
2022/03/05 01:28:29;;;;;;;13.60;7.68;;;-0.70;99.90;;;;;;5027547;28;20052;-67
2022/03/05 01:30:55;;;;;;;16.30;7.68;;;-0.80;99.90;;;;;;5041418;28;20094;-67
2022/03/05 01:33:21;;;;;;;13.82;8.35;;;-0.80;99.90;;;;;;5021367;28;20053;-66
2022/03/05 01:35:48;;;;;;;13.32;7.35;;;-0.80;99.90;;;;;;5043827;28;20056;-67
2022/03/05 01:38:14;;;;;;;14.43;7.40;;;-0.70;99.90;;;;;;5058209;28;20052;-66
2022/03/05 01:40:41;;;;;;;14.68;7.65;;;-0.70;99.90;;;;;;5057846;28;20073;-66
2022/03/05 01:43:07;;;;;;;17.67;8.32;;;-0.70;99.90;;;;;;5028638;28;20497;-67
2022/03/05 01:45:33;;;;;;;13.02;8.10;;;-0.80;99.90;;;;;;5045362;28;20044;-67
2022/03/05 01:47:59;;;;;;;16.67;7.63;;;-0.80;99.90;;;;;;5040265;28;20514;-66
2022/03/05 01:50:25;;;;;;;13.25;7.55;;;-0.80;99.90;;;;;;5050097;28;20048;-65
2022/03/05 01:52:51;;;;;;;14.13;7.70;;;-0.80;99.90;;;;;;5047815;28;20486;-66
2022/03/05 01:55:16;;;;;;;14.13;7.40;;;-0.80;99.90;;;;;;5047899;28;20140;-67
2022/03/05 01:57:42;;;;;;;15.20;7.22;;;-0.80;99.90;;;;;;5053076;28;20048;-66
2022/03/05 02:00:10;;;;;;;15.00;7.75;;;-0.80;99.90;;;;;;5034616;28;20033;-66
2022/03/05 02:02:36;;;;;;;15.80;7.38;;;-0.90;99.90;;;;;;5041193;28;20090;-66
2022/03/05 02:05:01;;;;;;;16.00;8.25;;;-0.90;99.90;;;;;;5048402;28;20072;-66
2022/03/05 02:07:27;;;;;;;12.57;7.60;;;-1.00;99.90;;;;;;5047439;28;20075;-67
2022/03/05 02:09:53;;;;;;;16.27;8.48;;;-1.00;99.90;;;;;;5057159;28;20057;-66
2022/03/05 02:12:18;;;;;;;13.65;8.13;;;-1.10;99.90;;;;;;5051129;28;20032;-66
2022/03/05 02:14:44;;;;;;;14.02;7.78;;;-1.10;99.90;;;;;;5048130;28;20086;-67
2022/03/05 02:17:10;;;;;;;16.45;8.45;;;-1.10;99.90;;;;;;5042675;28;20120;-67
2022/03/05 02:19:36;;;;;;;19.15;8.50;;;-1.10;99.90;;;;;;5043997;28;20125;-67
2022/03/05 02:22:03;;;;;;;18.52;8.52;;;-1.10;99.90;;;;;;5043653;28;20435;-66
2022/03/05 02:24:31;;;;;;;15.27;9.00;;;-1.10;99.90;;;;;;5018385;28;20041;-67
2022/03/05 02:27:02;;;;;;;15.35;8.77;;;-1.10;99.90;;;;;;5045536;28;20056;-67
2022/03/05 02:29:27;;;;;;;17.13;9.18;;;-1.20;99.90;;;;;;5042481;28;20127;-66
2022/03/05 02:31:54;;;;;;;15.90;9.00;;;-1.10;99.90;;;;;;5018504;28;20045;-66
2022/03/05 02:34:21;;;;;;;14.38;8.30;;;-1.20;99.90;;;;;;5028053;28;20052;-66
2022/03/05 02:36:47;;;;;;;15.90;8.85;;;-1.20;99.90;;;;;;5049752;28;20056;-67
2022/03/05 02:39:12;;;;;;;16.90;9.40;;;-1.20;99.90;;;;;;5046557;28;20050;-65
2022/03/05 02:41:38;;;;;;;14.48;8.70;;;-1.30;99.90;;;;;;5045064;28;20041;-66
2022/03/05 02:44:04;;;;;;;18.65;10.10;;;-1.20;99.90;;;;;;5036335;28;20312;-67
2022/03/05 02:46:29;;;;;;;16.23;8.38;;;-1.20;99.90;;;;;;5044313;28;20041;-66
2022/03/05 02:48:56;;;;;;;15.98;8.40;;;-1.30;99.90;;;;;;5061752;28;20044;-66
2022/03/05 02:51:22;;;;;;;16.10;9.70;;;-1.30;99.90;;;;;;5053034;28;20060;-66
2022/03/05 02:53:48;;;;;;;16.30;8.95;;;-1.30;99.90;;;;;;5052451;28;20044;-67
2022/03/05 02:56:14;;;;;;;15.02;8.60;;;-1.30;99.90;;;;;;5053630;28;20168;-67
2022/03/05 02:58:39;;;;;;;16.92;9.40;;;-1.30;99.90;;;;;;5042751;28;20044;-67
2022/03/05 03:01:05;;;;;;;17.90;9.25;;;-1.30;99.90;;;;;;5042392;28;20036;-67
2022/03/05 03:03:31;;;;;;;17.75;9.40;;;-1.30;99.90;;;;;;5040128;28;20072;-66
2022/03/05 03:05:57;;;;;;;16.67;8.73;;;-1.30;99.90;;;;;;5050357;28;20044;-66
2022/03/05 03:08:22;;;;;;;16.38;8.65;;;-1.30;99.90;;;;;;5046379;28;20136;-67
2022/03/05 03:10:48;;;;;;;15.05;8.32;;;-0.70;99.90;;;;;;5055506;28;20419;-66
2022/03/05 03:13:14;;;;;;;15.30;8.93;;;-1.30;99.90;;;;;;5043279;28;20086;-66
2022/03/05 03:15:40;;;;;;;16.85;8.90;;;-1.30;99.90;;;;;;5030472;28;20037;-66
2022/03/05 03:18:05;;;;;;;20.83;8.88;;;-1.30;99.90;;;;;;5032713;28;20453;-66
2022/03/05 03:20:31;;;;;;;16.25;7.80;;;-1.30;99.90;;;;;;5050272;28;20033;-67
2022/03/05 03:22:57;;;;;;;14.35;8.07;;;-1.30;99.90;;;;;;5050524;28;20092;-66
2022/03/05 03:25:23;;;;;;;13.50;7.85;;;-1.40;99.90;;;;;;5051566;28;20088;-67
2022/03/05 03:27:49;;;;;;;14.20;8.27;;;-1.40;99.90;;;;;;5047174;28;20036;-66
2022/03/05 03:30:16;;;;;;;14.30;8.18;;;-1.40;99.90;;;;;;5051159;28;20040;-67
2022/03/05 03:32:43;;;;;;;17.15;8.52;;;-1.40;99.90;;;;;;5043373;28;20037;-67
2022/03/05 03:35:10;;;;;;;16.20;8.88;;;-1.40;99.90;;;;;;5065137;28;20082;-67
2022/03/05 03:37:36;;;;;;;13.55;8.68;;;-1.40;99.90;;;;;;5066204;28;20509;-67
2022/03/05 03:40:05;;;;;;;14.70;8.65;;;-1.40;99.90;;;;;;5017760;28;20092;-67
2022/03/05 03:42:30;;;;;;;18.42;8.32;;;-1.40;99.90;;;;;;5041949;28;20041;-66
2022/03/05 03:44:56;;;;;;;15.43;9.02;;;-1.40;99.90;;;;;;5052227;28;20036;-67
2022/03/05 03:47:23;;;;;;;14.07;7.78;;;-1.50;99.90;;;;;;5051162;28;20422;-66
2022/03/05 03:49:49;;;;;;;14.30;7.88;;;-1.50;99.90;;;;;;5050850;28;20483;-66
2022/03/05 03:52:15;;;;;;;12.55;7.65;;;-1.50;99.90;;;;;;5053775;28;20649;-66
2022/03/05 03:54:42;;;;;;;12.95;7.13;;;-1.40;99.90;;;;;;5036206;28;20041;-68
2022/03/05 03:57:08;;;;;;;14.40;7.70;;;-1.40;99.90;;;;;;5047507;28;20124;-66
2022/03/05 03:59:33;;;;;;;13.40;7.60;;;-1.40;99.90;;;;;;5046265;28;20136;-66
2022/03/05 04:02:01;;;;;;;15.98;7.90;;;-1.40;99.90;;;;;;5028485;28;20521;-66
2022/03/05 04:04:26;;;;;;;16.70;8.30;;;-1.40;99.90;;;;;;5022684;28;20076;-67
2022/03/05 04:09:37;;;;;;;11.32;7.47;;;-1.40;99.90;;;;;;5053884;28;20143;-67
2022/03/05 04:12:03;;;;;;;14.02;7.20;;;-1.40;99.90;;;;;;5035712;28;20132;-66
2022/03/05 04:14:29;;;;;;;15.88;7.95;;;-1.40;99.90;;;;;;5035488;28;20111;-67
2022/03/05 04:16:54;;;;;;;11.70;6.82;;;-1.40;99.90;;;;;;5051649;28;20064;-67
2022/03/05 04:19:20;;;;;;;12.55;7.13;;;-1.40;99.90;;;;;;5050719;28;20096;-67
2022/03/05 04:21:46;;;;;;;14.68;7.68;;;-1.40;99.90;;;;;;5072164;28;20397;-67
2022/03/05 04:24:11;;;;;;;13.93;6.57;;;-1.40;99.90;;;;;;5043852;28;20438;-67
2022/03/05 04:26:37;;;;;;;13.00;7.40;;;-1.40;99.90;;;;;;5053832;28;20063;-67
2022/03/05 04:29:04;;;;;;;13.98;7.38;;;-1.40;99.90;;;;;;5046177;28;20044;-67
2022/03/05 04:31:30;;;;;;;11.82;6.85;;;-1.40;99.90;;;;;;5050070;28;20045;-66
2022/03/05 04:33:56;;;;;;;12.80;6.78;;;-1.40;99.90;;;;;;5034892;28;20118;-67
2022/03/05 04:36:22;;;;;;;11.35;6.60;;;-1.40;99.90;;;;;;5061619;28;20048;-66
2022/03/05 04:38:48;;;;;;;15.30;7.50;;;-1.50;99.90;;;;;;5042302;28;20044;-67
2022/03/05 04:41:14;;;;;;;12.02;6.97;;;-1.50;99.90;;;;;;5044602;28;20114;-68
2022/03/05 04:43:39;;;;;;;12.23;6.75;;;-1.50;99.90;;;;;;5052411;28;20036;-67
2022/03/05 04:46:05;;;;;;;13.73;7.35;;;-1.50;99.90;;;;;;5029726;28;20037;-67
2022/03/05 04:48:31;;;;;;;11.20;6.68;;;-1.50;99.90;;;;;;5051062;28;20049;-67
2022/03/05 04:50:56;;;;;;;11.95;6.35;;;-1.50;99.90;;;;;;5052134;28;20033;-66
2022/03/05 04:53:22;;;;;;;13.07;6.75;;;-1.50;99.90;;;;;;5062364;28;20510;-66
2022/03/05 04:55:49;;;;;;;12.88;6.90;;;-1.60;99.90;;;;;;5062866;28;20052;-67
2022/03/05 04:58:15;;;;;;;13.57;7.20;;;-1.60;99.90;;;;;;5038299;28;20048;-66
2022/03/05 05:00:40;;;;;;;11.48;6.20;;;-1.60;99.90;;;;;;5049233;28;20124;-66
2022/03/05 05:03:06;;;;;;;10.65;6.75;;;-1.60;99.90;;;;;;5051591;28;20115;-66
2022/03/05 05:05:32;;;;;;;10.77;6.38;;;-1.60;99.90;;;;;;5046567;28;20041;-66
2022/03/05 05:07:57;;;;;;;12.20;6.10;;;-1.60;99.90;;;;;;5051152;28;20451;-66
2022/03/05 05:10:23;;;;;;;10.48;6.25;;;-1.60;99.90;;;;;;5051452;28;20103;-66
2022/03/05 05:12:49;;;;;;;11.82;6.85;;;-1.60;99.90;;;;;;5053274;28;20041;-67
2022/03/05 05:15:14;;;;;;;16.02;7.18;;;-1.60;99.90;;;;;;5047827;28;20494;-67
2022/03/05 05:17:40;;;;;;;12.52;6.57;;;-1.60;99.90;;;;;;5048067;28;20028;-66
2022/03/05 05:20:08;;;;;;;14.43;7.78;;;-1.60;99.90;;;;;;5067441;28;20040;-66
2022/03/05 05:22:34;;;;;;;13.25;6.93;;;-1.70;99.90;;;;;;5035937;28;20043;-66
2022/03/05 05:25:00;;;;;;;14.15;6.78;;;-1.60;99.90;;;;;;5049532;28;20113;-66
2022/03/05 05:27:26;;;;;;;14.38;6.65;;;-1.70;99.90;;;;;;5055862;28;20041;-66
2022/03/05 05:29:52;;;;;;;12.02;7.05;;;-1.60;99.90;;;;;;5051439;28;20564;-67
2022/03/05 05:32:18;;;;;;;10.63;7.00;;;-1.70;99.90;;;;;;5050740;28;20132;-67
2022/03/05 05:34:44;;;;;;;16.50;7.38;;;-1.60;99.90;;;;;;5065226;28;20055;-67
2022/03/05 05:37:10;;;;;;;12.65;7.15;;;-1.60;99.90;;;;;;5066046;28;20048;-67
2022/03/05 05:39:35;;;;;;;15.95;7.05;;;-1.60;99.90;;;;;;5040213;28;20045;-66
2022/03/05 05:42:02;;;;;;;13.30;6.95;;;-1.60;99.90;;;;;;5040563;28;20442;-66
2022/03/05 05:44:27;;;;;;;11.63;7.18;;;-1.70;99.90;;;;;;5054933;28;20041;-67
2022/03/05 05:46:53;;;;;;;13.18;6.50;;;-1.60;99.90;;;;;;5055486;28;20113;-67
2022/03/05 05:49:19;;;;;;;11.52;7.28;;;-1.60;99.90;;;;;;5034016;28;20398;-67
2022/03/05 05:51:46;;;;;;;12.75;7.50;;;-1.60;99.90;;;;;;5049131;28;20395;-66
2022/03/05 05:54:11;;;;;;;13.00;6.88;;;-1.70;99.90;;;;;;5052156;28;20067;-66
2022/03/05 05:56:37;;;;;;;13.68;6.78;;;-1.70;99.90;;;;;;5039026;28;20037;-66
2022/03/05 05:59:04;;;;;;;11.60;6.78;;;-1.70;99.90;;;;;;5046030;28;20033;-67
2022/03/05 06:01:30;;;;;;;13.50;6.93;;;-1.70;99.90;;;;;;5053894;28;20378;-66
2022/03/05 06:03:56;;;;;;;13.55;7.28;;;-1.70;99.90;;;;;;5071924;28;20085;-67
2022/03/05 06:06:22;;;;;;;16.15;7.32;;;-1.70;99.90;;;;;;5051498;28;20043;-66
2022/03/05 06:08:48;;;;;;;12.85;6.95;;;-1.70;99.90;;;;;;5023616;28;20423;-66
2022/03/05 06:11:14;;;;;;;12.15;6.57;;;-1.70;99.90;;;;;;5032062;28;20056;-67
2022/03/05 06:13:40;;;;;;;16.27;7.95;;;-1.70;99.90;;;;;;5015531;28;20045;-66
2022/03/05 06:16:06;;;;;;;13.13;7.50;;;-1.70;99.90;;;;;;5045785;28;20037;-67
2022/03/05 06:18:32;;;;;;;14.93;7.38;;;-1.70;99.90;;;;;;5043805;28;20079;-67
2022/03/05 06:20:57;;;;;;;18.23;7.32;;;-1.80;99.90;;;;;;5049312;28;20080;-68
2022/03/05 06:23:23;;;;;;;14.02;7.32;;;-1.70;99.90;;;;;;5027974;28;20041;-66
2022/03/05 06:25:50;;;;;;;19.08;7.50;;;-1.70;99.90;;;;;;5050226;28;20426;-67
2022/03/05 06:28:16;;;;;;;13.70;7.65;;;-1.70;99.90;;;;;;5047952;28;20048;-67
2022/03/05 06:30:42;;;;;;;14.13;7.45;;;-1.70;99.90;;;;;;5049187;28;20040;-67
2022/03/05 06:33:07;;;;;;;17.27;8.20;;;-1.70;99.90;;;;;;5049580;28;20033;-67
2022/03/05 06:35:33;;;;;;;15.55;8.10;;;-1.70;99.90;;;;;;5048758;28;20053;-67
2022/03/05 06:37:59;;;;;;;13.55;7.32;;;-1.70;99.90;;;;;;5035221;28;20053;-66
2022/03/05 06:40:25;;;;;;;13.48;8.15;;;-1.70;99.90;;;;;;5054155;28;20130;-67
2022/03/05 06:42:51;;;;;;;12.45;7.60;;;-1.70;99.90;;;;;;5055119;28;20148;-66
2022/03/05 06:45:16;;;;;;;15.57;7.63;;;-1.70;99.90;;;;;;5059235;28;20033;-66
2022/03/05 06:47:42;;;;;;;13.63;8.25;;;-1.70;99.90;;;;;;5035651;28;20063;-67
2022/03/05 06:50:10;;;;;;;14.57;7.57;;;-1.70;99.90;;;;;;5029859;28;20216;-67
2022/03/05 06:52:36;;;;;;;14.13;7.80;;;-1.70;99.90;;;;;;5014366;28;20044;-66
2022/03/05 06:55:03;;;;;;;13.70;7.85;;;-1.60;99.90;;;;;;5051615;28;20047;-68
2022/03/05 06:57:29;;;;;;;13.68;7.68;;;-1.60;99.90;;;;;;5030786;28;20047;-67
2022/03/05 06:59:55;;;;;;;16.52;8.10;;;-1.60;99.90;;;;;;5049188;28;20048;-66
2022/03/05 07:02:21;;;;;;;12.25;7.32;;;-1.60;99.90;;;;;;5038914;28;20045;-67
2022/03/05 07:04:47;;;;;;;12.85;7.38;;;-1.50;99.90;;;;;;5032448;28;20036;-67
2022/03/05 07:07:13;;;;;;;14.02;8.40;;;-1.40;99.90;;;;;;5020641;28;20048;-66
2022/03/05 07:09:38;;;;;;;15.27;8.10;;;-1.40;99.90;;;;;;5052698;28;20505;-67
2022/03/05 07:12:05;;;;;;;16.70;8.70;;;-1.30;99.90;;;;;;5037917;28;20042;-69
2022/03/05 07:14:31;;;;;;;16.42;8.50;;;-1.20;99.90;;;;;;5001307;28;20540;-68
2022/03/05 07:16:57;;;;;;;13.93;8.02;;;0.20;99.90;;;;;;5047118;28;20041;-67
2022/03/05 07:19:22;;;;;;;17.85;7.60;;;-1.10;99.90;;;;;;5053872;28;20040;-68
2022/03/05 07:21:48;;;;;;;12.07;7.25;;;-1.00;99.90;;;;;;5028545;28;20446;-67
2022/03/05 07:24:14;;;;;;;17.40;8.02;;;-0.90;99.90;;;;;;5035232;28;20144;-68
2022/03/05 07:26:39;;;;;;;18.45;8.50;;;-0.80;99.90;;;;;;5036667;28;20037;-67
2022/03/05 07:29:06;;;;;;;15.70;8.02;;;-0.70;99.90;;;;;;5052777;28;20230;-68
2022/03/05 07:31:32;;;;;;;13.32;8.15;;;-0.60;99.90;;;;;;5048673;28;20049;-67
2022/03/05 07:33:58;;;;;;;16.63;8.18;;;-0.60;99.90;;;;;;5036516;28;20460;-68
2022/03/05 07:36:23;;;;;;;15.52;8.35;;;-0.50;99.90;;;;;;5050895;28;20056;-67
2022/03/05 07:38:51;;;;;;;13.57;8.40;;;-0.40;99.90;;;;;;5042781;28;20522;-67
2022/03/05 07:41:17;;;;;;;14.73;9.10;;;-0.10;99.90;;;;;;5034952;28;20055;-69
2022/03/05 07:43:44;;;;;;;17.17;8.57;;;-0.20;99.90;;;;;;5052886;28;20125;-67
2022/03/05 07:46:09;;;;;;;16.60;9.05;;;-0.10;99.90;;;;;;5047293;28;20605;-67
2022/03/05 07:48:35;;;;;;;16.92;8.68;;;0.00;99.90;;;;;;5050494;28;20049;-67
2022/03/05 07:51:02;;;;;;;14.90;7.55;;;0.20;99.90;;;;;;5047927;28;20048;-68
2022/03/05 07:53:28;;;;;;;17.20;8.40;;;0.50;99.90;;;;;;5036596;28;20780;-67
2022/03/05 07:55:54;;;;;;;15.63;8.68;;;0.80;99.90;;;;;;5053236;28;20049;-67
2022/03/05 07:58:20;;;;;;;16.90;9.40;;;0.90;99.90;;;;;;5052981;28;20077;-68
2022/03/05 08:00:46;;;;;;;14.27;8.25;;;0.90;99.90;;;;;;5034549;28;20037;-68
2022/03/05 08:03:12;;;;;;;14.82;9.02;;;1.00;99.90;;;;;;5031106;28;20044;-67
2022/03/05 08:05:37;;;;;;;14.85;8.57;;;1.00;99.90;;;;;;5053796;28;20142;-67
2022/03/05 08:08:04;;;;;;;12.88;7.60;;;1.00;99.90;;;;;;5054279;28;20045;-67
2022/03/05 08:10:29;;;;;;;15.10;8.27;;;1.00;99.90;;;;;;5025639;28;20112;-67
2022/03/05 08:12:55;;;;;;;13.15;7.70;;;1.10;99.90;;;;;;5053414;28;20045;-67
2022/03/05 08:15:21;;;;;;;16.17;8.63;;;1.10;99.90;;;;;;5034712;28;20048;-66
2022/03/05 08:17:50;;;;;;;16.35;8.35;;;1.10;99.90;;;;;;5034389;28;20090;-67
2022/03/05 08:20:17;;;;;;;19.38;8.98;;;1.30;99.90;;;;;;5017940;28;20048;-67
2022/03/05 08:22:43;;;;;;;13.23;8.25;;;1.30;99.90;;;;;;5052981;28;20175;-67
2022/03/05 08:25:08;;;;;;;16.52;8.98;;;1.40;99.90;;;;;;5037363;28;20493;-68
2022/03/05 08:27:34;;;;;;;16.42;8.70;;;1.40;99.90;;;;;;5034269;28;20037;-68
2022/03/05 08:29:59;;;;;;;16.33;8.60;;;1.50;99.90;;;;;;5051778;28;20040;-67
2022/03/05 08:32:25;;;;;;;14.55;8.10;;;1.60;99.90;;;;;;5052066;28;20052;-68
2022/03/05 08:34:51;;;;;;;15.45;7.90;;;1.80;99.90;;;;;;5051855;28;20053;-69
2022/03/05 08:37:16;;;;;;;16.20;8.18;;;2.00;99.90;;;;;;5052947;28;20045;-68
2022/03/05 08:39:42;;;;;;;15.82;9.20;;;2.00;99.90;;;;;;5051863;28;20530;-67
2022/03/05 08:42:08;;;;;;;15.52;7.57;;;1.90;99.90;;;;;;5043999;28;20036;-68
2022/03/05 08:44:34;;;;;;;17.73;8.18;;;2.00;99.90;;;;;;5035303;28;20063;-66
2022/03/05 08:46:59;;;;;;;18.95;8.70;;;2.00;99.90;;;;;;5052908;28;20049;-67
2022/03/05 08:49:25;;;;;;;13.63;8.25;;;2.00;99.90;;;;;;5048601;28;20479;-68
2022/03/05 08:51:51;;;;;;;15.35;7.88;;;2.10;99.90;;;;;;5013385;28;20493;-68
2022/03/05 08:54:17;;;;;;;14.38;8.18;;;2.10;99.90;;;;;;5034590;28;20119;-68
2022/03/05 08:56:43;;;;;;;14.35;8.27;;;2.20;99.90;;;;;;5034889;28;20091;-67
2022/03/05 08:59:09;;;;;;;16.02;8.07;;;2.40;99.90;;;;;;5049232;28;20065;-69
2022/03/05 09:01:35;;;;;;;17.25;8.80;;;2.50;99.90;;;;;;5048219;28;20102;-68
2022/03/05 09:04:00;;;;;;;14.30;8.35;;;2.60;99.90;;;;;;5015123;28;20120;-68
2022/03/05 09:06:26;;;;;;;17.25;8.65;;;2.80;99.90;;;;;;5047726;28;20041;-67
2022/03/05 09:08:52;;;;;;;13.98;8.52;;;2.90;99.90;;;;;;5046987;28;20073;-68
2022/03/05 09:11:18;;;;;;;16.95;8.75;;;3.10;99.90;;;;;;5039025;28;20045;-67
2022/03/05 09:13:43;;;;;;;13.85;7.63;;;3.10;99.90;;;;;;5037834;28;20048;-68
2022/03/05 09:16:09;;;;;;;15.50;9.05;;;3.30;99.90;;;;;;5035330;28;20379;-67
2022/03/05 09:18:35;;;;;;;15.55;8.20;;;3.40;99.90;;;;;;5024140;28;20045;-67
2022/03/05 09:21:00;;;;;;;16.02;8.32;;;3.50;99.90;;;;;;5032602;28;20048;-67
2022/03/05 09:23:26;;;;;;;15.68;8.20;;;3.60;99.90;;;;;;5048921;28;20069;-67
2022/03/05 09:25:51;;;;;;;14.63;8.30;;;3.70;99.90;;;;;;5052289;28;20094;-67
2022/03/05 09:28:17;;;;;;;16.33;8.90;;;3.80;99.90;;;;;;5038504;28;20092;-67
2022/03/05 09:30:43;;;;;;;13.23;7.82;;;3.90;99.90;;;;;;5026619;28;20110;-67
2022/03/05 09:33:09;;;;;;;18.38;9.57;;;4.00;99.90;;;;;;5050029;28;20045;-67
2022/03/05 09:35:34;;;;;;;18.13;8.80;;;4.20;99.90;;;;;;5044333;28;20448;-67
2022/03/05 09:38:00;;;;;;;17.52;9.25;;;4.20;99.90;;;;;;5048428;28;20460;-67
2022/03/05 09:40:26;;;;;;;20.05;9.63;;;4.20;99.90;;;;;;5030792;28;20045;-66
2022/03/05 09:42:51;;;;;;;19.83;9.52;;;4.30;99.90;;;;;;5047909;28;20475;-66
2022/03/05 09:45:17;;;;;;;16.92;8.93;;;4.20;99.90;;;;;;5049776;28;20044;-67
2022/03/05 09:47:44;;;;;;;15.88;9.15;;;4.30;99.90;;;;;;5045837;28;20087;-66
2022/03/05 09:50:11;;;;;;;19.55;9.40;;;4.50;99.90;;;;;;5043080;28;20057;-67
2022/03/05 09:52:37;;;;;;;19.05;10.38;;;4.60;99.90;;;;;;5026458;28;20042;-67
2022/03/05 09:55:04;;;;;;;18.52;9.45;;;4.80;99.90;;;;;;5050747;28;20041;-67
2022/03/05 09:57:30;;;;;;;21.40;10.45;;;5.00;99.90;;;;;;5047896;28;20067;-67
2022/03/05 09:59:55;;;;;;;16.65;9.27;;;5.10;99.90;;;;;;5033930;28;20472;-67
2022/03/05 10:02:21;;;;;;;20.10;9.25;;;5.30;99.90;;;;;;5026922;28;20080;-67
2022/03/05 10:04:46;;;;;;;14.95;8.13;;;5.50;99.90;;;;;;5051245;28;20454;-67
2022/03/05 10:07:20;;;;;;;16.17;9.20;;;5.50;99.90;;;;;;5049362;28;20043;-67
2022/03/05 10:09:47;;;;;;;16.45;9.10;;;5.60;99.90;;;;;;5051199;28;20076;-68
2022/03/05 10:12:33;;;;;;;14.82;9.40;;;5.70;99.90;;;;;;5047324;28;20033;-67
2022/03/05 10:15:06;;;;;;;16.92;9.38;;;5.80;99.90;;;;;;5050805;28;20406;-66
2022/03/05 10:17:47;;;;;;;16.83;10.20;;;6.00;99.90;;;;;;5051254;28;21367;-67
2022/03/05 10:20:13;;;;;;;19.73;9.77;;;6.00;99.90;;;;;;5046097;28;20041;-68
2022/03/05 10:22:49;;;;;;;15.73;9.32;;;6.30;99.90;;;;;;5050881;28;20041;-66
2022/03/05 10:25:14;;;;;;;15.05;8.68;;;6.40;99.90;;;;;;5052045;28;20045;-67
2022/03/05 10:27:42;;;;;;;16.77;9.73;;;6.50;99.90;;;;;;5052254;28;20056;-67
2022/03/05 10:30:08;;;;;;;18.08;9.32;;;6.60;99.90;;;;;;5052842;28;20045;-67
2022/03/05 10:32:39;;;;;;;16.73;10.05;;;6.70;99.90;;;;;;5013950;28;20049;-67
2022/03/05 10:35:05;;;;;;;13.95;9.18;;;6.90;99.90;;;;;;5047627;28;20434;-67
2022/03/05 10:37:34;;;;;;;17.33;9.07;;;7.00;99.90;;;;;;5010171;28;20132;-66
2022/03/05 10:40:02;;;;;;;16.70;9.45;;;7.00;99.90;;;;;;5031012;28;20065;-66
2022/03/05 10:42:29;;;;;;;17.98;10.15;;;7.30;99.90;;;;;;5029512;28;20044;-66
2022/03/05 10:45:11;;;;;;;18.25;9.80;;;7.20;99.90;;;;;;5026532;28;20398;-66
2022/03/05 10:47:42;;;;;;;14.38;9.55;;;7.20;99.90;;;;;;5028661;28;20073;-67
2022/03/05 10:50:29;;;;;;;18.45;11.20;;;7.60;99.90;;;;;;5043215;28;20042;-66
2022/03/05 10:53:01;;;;;;;17.10;10.23;;;7.50;99.50;;;;;;5022648;28;20040;-67
2022/03/05 10:55:34;;;;;;;20.15;10.82;;;7.40;98.40;;;;;;5031461;28;20125;-67
2022/03/05 10:58:00;;;;;;;15.57;9.95;;;7.60;98.90;;;;;;5033502;28;20514;-66
2022/03/05 11:00:26;;;;;;;15.98;9.30;;;7.50;98.10;;;;;;5030196;28;20046;-68
2022/03/05 11:02:54;;;;;;;17.25;10.85;;;7.60;98.40;;;;;;5035170;28;20463;-66
2022/03/05 11:05:20;;;;;;;16.20;9.73;;;7.70;98.20;;;;;;5035607;28;20053;-67
2022/03/05 11:07:52;;;;;;;19.52;11.25;;;7.70;98.50;;;;;;5032110;28;20052;-67
2022/03/05 11:10:18;;;;;;;17.60;10.07;;;7.90;98.30;;;;;;5020151;28;20129;-67
2022/03/05 11:12:51;;;;;;;16.90;10.02;;;8.30;98.20;;;;;;5039495;28;20063;-66
2022/03/05 11:15:18;;;;;;;15.05;9.77;;;8.30;98.20;;;;;;5033073;28;20296;-67
2022/03/05 11:17:45;;;;;;;13.77;8.77;;;8.50;98.20;;;;;;5030905;28;20041;-67
2022/03/05 11:20:12;;;;;;;16.92;10.45;;;8.70;97.50;;;;;;5033547;28;20048;-67
2022/03/05 11:22:38;;;;;;;15.07;10.20;;;8.90;97.20;;;;;;5034541;28;20117;-67
2022/03/05 11:25:05;;;;;;;18.73;10.20;;;9.10;96.40;;;;;;5033418;28;20041;-67
2022/03/05 11:27:30;;;;;;;20.35;11.20;;;9.10;95.10;;;;;;5029284;28;20041;-68
2022/03/05 11:29:58;;;;;;;19.65;11.10;;;9.10;94.90;;;;;;5033061;28;20068;-67
2022/03/05 11:32:32;;;;;;;26.38;12.18;;;9.30;94.70;;;;;;5032858;28;20037;-67
2022/03/05 11:34:58;;;;;;;22.30;11.68;;;9.20;94.80;;;;;;5031131;28;20038;-67
2022/03/05 11:37:34;;;;;;;18.92;12.38;;;9.40;94.70;;;;;;5032856;28;20050;-67
2022/03/05 11:40:02;;;;;;;23.52;12.05;;;9.60;93.10;;;;;;5035044;28;20041;-67
2022/03/05 11:42:33;;;;;;;19.42;11.68;;;10.10;93.30;;;;;;5033169;28;20124;-67
2022/03/05 11:45:01;;;;;;;17.73;11.15;;;9.50;91.00;;;;;;5030681;28;20049;-66
2022/03/05 11:47:36;;;;;;;16.98;10.35;;;9.30;91.10;;;;;;5023933;28;20077;-67
2022/03/05 11:50:08;;;;;;;18.80;11.38;;;9.50;91.60;;;;;;5034639;28;20049;-67
2022/03/05 11:52:40;;;;;;;15.32;10.10;;;9.60;92.90;;;;;;5027485;28;20048;-67
2022/03/05 11:55:26;;;;;;;15.70;10.07;;;9.80;90.40;;;;;;5021168;28;20049;-67
2022/03/05 11:57:51;;;;;;;16.23;10.77;;;10.10;91.30;;;;;;5014944;28;20048;-67
2022/03/05 12:00:29;;;;;;;16.20;10.38;;;9.90;91.00;;;;;;5014323;28;20045;-66
2022/03/05 12:02:57;;;;;;;14.55;10.27;;;9.90;90.20;;;;;;5023579;28;20042;-66
2022/03/05 12:05:38;;;;;;;17.75;10.35;;;9.80;88.50;;;;;;5031575;28;20053;-67
2022/03/05 12:08:11;;;;;;;16.73;10.48;;;9.80;88.10;;;;;;5033252;28;20045;-67
2022/03/05 12:10:38;;;;;;;14.18;9.95;;;10.10;90.00;;;;;;5033183;28;20045;-67
2022/03/05 12:13:14;;;;;;;14.60;9.45;;;9.90;88.20;;;;;;5030021;28;20444;-67
2022/03/05 12:15:41;;;;;;;19.20;10.52;;;9.80;87.00;;;;;;5015565;28;20058;-66
2022/03/05 12:18:15;;;;;;;16.85;10.38;;;10.00;89.00;;;;;;5033203;28;20517;-66
2022/03/05 12:20:45;;;;;;;14.88;10.35;;;10.10;85.30;;;;;;5034319;28;20519;-67
2022/03/05 12:23:19;;;;;;;16.30;11.02;;;10.00;84.90;;;;;;5024061;28;20034;-67
2022/03/05 12:25:46;;;;;;;20.77;10.95;;;9.60;85.20;;;;;;5014359;28;20092;-67
2022/03/05 12:28:23;;;;;;;16.77;10.88;;;10.50;87.70;;;;;;5030149;28;20042;-67
2022/03/05 12:30:52;;;;;;;16.27;10.90;;;10.00;87.10;;;;;;5024943;28;20129;-66
2022/03/05 12:33:18;;;;;;;17.92;11.02;;;10.20;86.40;;;;;;5017045;28;20383;-67
2022/03/05 12:35:46;;;;;;;16.02;10.02;;;10.00;84.30;;;;;;5036487;28;20045;-67
2022/03/05 12:38:22;;;;;;;16.25;10.32;;;9.80;84.30;;;;;;5046680;28;20050;-66